TimeCST,TemperatureF,Dew PointF,Humidity,Sea Level PressureIn,VisibilityMPH,Wind Direction,Wind SpeedMPH,Gust SpeedMPH,PrecipitationIn,Events,Conditions,WindDirDegrees,DateUTC
12:17 AM,-14.8,-20.2,77,30.50,10.0,West,5.8,-,N/A,,Clear,280,2014-02-05 06:17:00
12:37 AM,-14.8,-20.2,77,30.49,10.0,WNW,5.8,-,N/A,,Clear,300,2014-02-05 06:37:00
12:56 AM,-11.2,-16.6,77,30.50,10.0,WNW,4.6,-,N/A,,Clear,300,2014-02-05 06:56:00
1:17 AM,-11.2,-16.6,77,30.50,10.0,WNW,3.5,-,N/A,,Clear,300,2014-02-05 07:17:00
1:37 AM,-11.2,-16.6,77,30.50,10.0,NW,3.5,-,N/A,,Clear,320,2014-02-05 07:37:00
1:56 AM,-11.2,-16.6,77,30.50,10.0,NW,4.6,-,N/A,,Clear,320,2014-02-05 07:56:00
2:17 AM,-11.2,-16.6,77,30.51,10.0,WNW,4.6,-,N/A,,Clear,300,2014-02-05 08:17:00
2:37 AM,-11.2,-16.6,77,30.52,10.0,Calm,Calm,-,N/A,,Clear,0,2014-02-05 08:37:00
2:56 AM,-13.0,-18.4,77,30.52,10.0,Calm,Calm,-,N/A,,Mostly Cloudy,0,2014-02-05 08:56:00
3:17 AM,-13.0,-16.6,84,30.52,10.0,West,3.5,-,N/A,,Overcast,260,2014-02-05 09:17:00
3:36 AM,-11.2,-16.6,77,30.52,10.0,Calm,Calm,-,N/A,,Overcast,0,2014-02-05 09:36:00
3:57 AM,-11.2,-16.6,77,30.52,10.0,SW,3.5,-,N/A,,Overcast,220,2014-02-05 09:57:00
4:17 AM,-11.2,-16.6,77,30.53,10.0,SW,5.8,-,N/A,,Overcast,230,2014-02-05 10:17:00
4:36 AM,-11.2,-16.6,77,30.53,10.0,SW,5.8,-,N/A,,Overcast,230,2014-02-05 10:36:00
4:57 AM,-11.2,-16.6,77,30.52,10.0,WSW,4.6,-,N/A,,Overcast,240,2014-02-05 10:57:00
5:17 AM,-11.2,-14.8,84,30.52,10.0,Calm,Calm,-,N/A,,Overcast,0,2014-02-05 11:17:00
5:36 AM,-9.4,-14.8,77,30.51,10.0,WSW,4.6,-,N/A,Snow,Light Snow,250,2014-02-05 11:36:00
5:57 AM,-9.4,-14.8,77,30.50,10.0,West,3.5,-,N/A,Snow,Light Snow,270,2014-02-05 11:57:00
6:17 AM,-7.6,-11.2,84,30.50,10.0,WNW,3.5,-,N/A,,Overcast,290,2014-02-05 12:17:00
6:36 AM,-7.6,-11.2,84,30.50,10.0,NW,5.8,-,N/A,,Overcast,310,2014-02-05 12:36:00
6:57 AM,-7.6,-11.2,84,30.50,10.0,NW,5.8,-,N/A,,Overcast,320,2014-02-05 12:57:00
7:16 AM,-7.6,-11.2,84,30.49,10.0,NW,4.6,-,N/A,,Overcast,310,2014-02-05 13:16:00
7:36 AM,-5.8,-9.4,84,30.49,10.0,WNW,5.8,-,N/A,,Overcast,300,2014-02-05 13:36:00
7:57 AM,-5.8,-9.4,84,30.50,10.0,NW,5.8,-,N/A,,Overcast,310,2014-02-05 13:57:00
8:16 AM,-5.8,-9.4,84,30.50,10.0,NW,8.1,-,N/A,,Overcast,310,2014-02-05 14:16:00
8:36 AM,-5.8,-9.4,84,30.50,10.0,WNW,8.1,-,N/A,,Overcast,300,2014-02-05 14:36:00
8:57 AM,-5.8,-9.4,84,30.50,10.0,WNW,11.5,-,N/A,,Mostly Cloudy,300,2014-02-05 14:57:00
9:16 AM,-5.8,-11.2,77,30.51,10.0,NW,12.7,-,N/A,,Overcast,310,2014-02-05 15:16:00
9:37 AM,-5.8,-11.2,77,30.51,10.0,NW,10.4,-,N/A,,Overcast,310,2014-02-05 15:37:00
9:57 AM,-5.8,-11.2,77,30.51,7.0,WNW,9.2,-,N/A,,Overcast,300,2014-02-05 15:57:00
10:16 AM,-5.8,-11.2,77,30.51,10.0,NW,10.4,-,N/A,,Overcast,310,2014-02-05 16:16:00
10:37 AM,-5.8,-11.2,77,30.51,10.0,WNW,10.4,-,N/A,,Overcast,300,2014-02-05 16:37:00
10:57 AM,-5.8,-11.2,77,30.51,10.0,WNW,8.1,-,N/A,,Overcast,290,2014-02-05 16:57:00
11:16 AM,-4.0,-11.2,71,30.51,10.0,NW,9.2,-,N/A,,Overcast,310,2014-02-05 17:16:00
11:37 AM,-2.2,-11.2,66,30.51,10.0,NW,8.1,-,N/A,,Overcast,320,2014-02-05 17:37:00
11:57 AM,-2.2,-11.2,66,30.50,7.0,WNW,6.9,-,N/A,,Overcast,300,2014-02-05 17:57:00
12:16 PM,-2.2,-9.4,71,30.50,7.0,WNW,6.9,-,N/A,,Overcast,290,2014-02-05 18:16:00
12:37 PM,-2.2,-11.2,66,30.50,10.0,West,6.9,-,N/A,,Overcast,270,2014-02-05 18:37:00
12:57 PM,-2.2,-9.4,71,30.49,10.0,WNW,8.1,-,N/A,,Overcast,290,2014-02-05 18:57:00
1:16 PM,-2.2,-9.4,71,30.49,10.0,West,8.1,-,N/A,,Overcast,280,2014-02-05 19:16:00
1:37 PM,-0.4,-9.4,66,30.47,10.0,West,6.9,-,N/A,,Overcast,270,2014-02-05 19:37:00
1:57 PM,-0.4,-9.4,66,30.47,10.0,WSW,9.2,-,N/A,,Overcast,250,2014-02-05 19:57:00
2:16 PM,-0.4,-9.4,66,30.47,10.0,West,9.2,-,N/A,,Overcast,260,2014-02-05 20:16:00
2:37 PM,-0.4,-9.4,66,30.46,10.0,West,10.4,-,N/A,,Mostly Cloudy,260,2014-02-05 20:37:00
2:57 PM,-0.4,-9.4,66,30.46,10.0,West,6.9,-,N/A,,Scattered Clouds,270,2014-02-05 20:57:00
3:16 PM,-0.4,-9.4,66,30.46,10.0,West,8.1,-,N/A,,Clear,260,2014-02-05 21:16:00
3:37 PM,-0.4,-9.4,66,30.46,10.0,WSW,9.2,-,N/A,,Clear,240,2014-02-05 21:37:00
3:57 PM,-2.2,-9.4,71,30.46,10.0,WSW,8.1,-,N/A,,Clear,240,2014-02-05 21:57:00
4:16 PM,-2.2,-11.2,66,30.45,10.0,West,8.1,-,N/A,,Clear,270,2014-02-05 22:16:00
4:37 PM,-4.0,-11.2,71,30.45,10.0,West,8.1,-,N/A,,Clear,260,2014-02-05 22:37:00
4:57 PM,-5.8,-13.0,71,30.45,10.0,West,9.2,-,N/A,,Clear,260,2014-02-05 22:57:00
5:16 PM,-5.8,-13.0,71,30.44,10.0,West,9.2,-,N/A,,Clear,260,2014-02-05 23:16:00
5:37 PM,-5.8,-13.0,71,30.44,10.0,West,8.1,-,N/A,,Clear,260,2014-02-05 23:37:00
5:57 PM,-7.6,-13.0,77,30.44,10.0,West,8.1,-,N/A,,Clear,260,2014-02-05 23:57:00
6:16 PM,-7.6,-13.0,77,30.44,10.0,West,8.1,-,N/A,,Clear,260,2014-02-06 00:16:00
6:37 PM,-7.6,-14.8,71,30.43,10.0,West,8.1,-,N/A,,Clear,260,2014-02-06 00:37:00
6:57 PM,-7.6,-14.8,71,30.43,10.0,WSW,8.1,-,N/A,,Clear,250,2014-02-06 00:57:00
7:16 PM,-7.6,-14.8,71,30.42,10.0,West,8.1,-,N/A,,Clear,260,2014-02-06 01:16:00
7:37 PM,-7.6,-14.8,71,30.42,10.0,WSW,6.9,-,N/A,,Clear,250,2014-02-06 01:37:00
7:57 PM,-9.4,-14.8,77,30.41,10.0,WSW,9.2,-,N/A,,Clear,250,2014-02-06 01:57:00
8:16 PM,-9.4,-14.8,77,30.41,10.0,WSW,9.2,-,N/A,,Clear,240,2014-02-06 02:16:00
8:37 PM,-9.4,-14.8,77,30.41,10.0,WSW,9.2,-,N/A,,Clear,240,2014-02-06 02:37:00
8:57 PM,-11.2,-14.8,84,30.41,10.0,SW,9.2,-,N/A,,Clear,230,2014-02-06 02:57:00
9:16 PM,-11.2,-16.6,77,30.41,10.0,SW,8.1,-,N/A,,Clear,230,2014-02-06 03:16:00
9:37 PM,-11.2,-16.6,77,30.40,10.0,SW,8.1,-,N/A,,Clear,230,2014-02-06 03:37:00
9:57 PM,-11.2,-16.6,77,30.40,10.0,SW,9.2,-,N/A,,Clear,230,2014-02-06 03:57:00
10:16 PM,-11.2,-16.6,77,30.39,10.0,SW,8.1,-,N/A,,Clear,230,2014-02-06 04:16:00
10:37 PM,-13.0,-16.6,84,30.39,10.0,SW,8.1,-,N/A,,Clear,230,2014-02-06 04:37:00
10:57 PM,-13.0,-16.6,84,30.38,10.0,SW,10.4,-,N/A,,Clear,230,2014-02-06 04:57:00
11:16 PM,-11.2,-16.6,77,30.37,10.0,SW,10.4,-,N/A,,Clear,230,2014-02-06 05:16:00
11:37 PM,-13.0,-16.6,84,30.36,10.0,SW,10.4,-,N/A,,Clear,230,2014-02-06 05:37:00
11:56 PM,-13.0,-18.4,77,30.36,10.0,SW,9.2,-,N/A,,Clear,230,2014-02-06 05:56:00